U S A F Academy, Colorado
Current Conditions -  °F | °C
As of 6:56 PM on Friday 24 Oct 2014 (Local Time) from KSHM Reporting Station
Clear Clear  
Wind Chill: 18°   Ceiling: Unl
Heat Index: 18°   Visibility: 10mi
Dew Point: -5°   Wind: 6mph
Humidity: 20%   Direction: 110°ESE
Pressure: 30.25"   Gusts: NA
Location:  38.8247°N, 104.562°W
Report Text: KSHM 250056Z AUTO 11005KT 10SM CLR 18/M05 A3025 RMK AO2 SLP193 T01791054
Loading
Personal Weather Stations






























Interactive Weather Map
Tropical Storm Tracking
New forecast layout! Learn more

10-Day Weather Forecast

Advertisements
Track Severe Weather on mobile